createdAt,value
2019-02-05T00:02:16.827Z,11.33
2019-02-05T00:05:05.693Z,14.23
2019-02-05T00:07:53.876Z,13.75
2019-02-05T00:10:42.081Z,14.40
2019-02-05T00:13:30.162Z,12.55
2019-02-05T00:16:18.610Z,14.50
2019-02-05T00:19:07.250Z,15.95
2019-02-05T00:21:54.971Z,14.23
2019-02-05T00:24:43.191Z,17.25
2019-02-05T00:27:31.404Z,16.80
2019-02-05T00:30:19.581Z,13.72
2019-02-05T00:33:08.479Z,14.05
2019-02-05T00:35:56.606Z,13.90
2019-02-05T00:38:44.390Z,12.23
2019-02-05T00:41:32.482Z,11.95
2019-02-05T00:44:20.538Z,12.93
2019-02-05T00:47:09.303Z,12.13
2019-02-05T00:49:57.394Z,15.03
2019-02-05T00:52:45.787Z,12.70
2019-02-05T00:55:34.902Z,16.15
2019-02-05T00:58:23.484Z,14.85
2019-02-05T01:01:11.361Z,12.82
2019-02-05T01:04:00.120Z,13.35
2019-02-05T01:06:48.552Z,12.00
2019-02-05T01:09:37.082Z,14.73
2019-02-05T01:12:26.012Z,19.00
2019-02-05T01:15:15.951Z,12.13
2019-02-05T01:18:05.010Z,18.48
2019-02-05T01:20:53.374Z,15.50
2019-02-05T01:23:41.329Z,13.40
2019-02-05T01:26:30.966Z,12.37
2019-02-05T01:29:19.658Z,13.15
2019-02-05T01:32:08.298Z,12.50
2019-02-05T01:34:56.504Z,13.83
2019-02-05T01:37:44.429Z,21.40
2019-02-05T01:40:32.230Z,13.13
2019-02-05T01:43:21.150Z,13.18
2019-02-05T01:46:09.561Z,17.80
2019-02-05T01:48:58.255Z,14.93
2019-02-05T01:51:46.544Z,15.18
2019-02-05T01:54:35.260Z,18.02
2019-02-05T01:57:23.564Z,12.98
2019-02-05T02:00:14.989Z,15.75
2019-02-05T02:03:04.298Z,14.10
2019-02-05T02:05:52.618Z,20.72
2019-02-05T02:08:40.611Z,17.50
2019-02-05T02:11:28.619Z,14.28
2019-02-05T02:14:16.782Z,15.23
2019-02-05T02:17:04.726Z,19.55
2019-02-05T02:19:52.357Z,15.72
2019-02-05T02:22:40.712Z,16.82
2019-02-05T02:25:28.643Z,11.73
2019-02-05T02:28:19.130Z,14.70
2019-02-05T02:31:07.054Z,16.35
2019-02-05T02:33:55.022Z,17.98
2019-02-05T02:36:43.894Z,19.77
2019-02-05T02:39:32.418Z,23.45
2019-02-05T02:42:20.490Z,20.82
2019-02-05T02:45:10.557Z,20.40
2019-02-05T02:47:59.018Z,22.58
2019-02-05T02:50:47.965Z,19.07
2019-02-05T02:53:37.370Z,20.23
2019-02-05T02:56:25.599Z,21.35
2019-02-05T02:59:14.050Z,15.55
2019-02-05T03:02:02.072Z,22.77
2019-02-05T03:04:50.640Z,17.07
2019-02-05T03:07:38.799Z,18.70
2019-02-05T03:10:29.304Z,19.40
2019-02-05T03:13:17.438Z,22.67
2019-02-05T03:16:06.891Z,26.68
2019-02-05T03:18:55.297Z,23.57
2019-02-05T03:21:43.179Z,24.47
2019-02-05T03:24:31.524Z,26.15
2019-02-05T03:27:20.071Z,21.97
2019-02-05T03:30:15.190Z,22.13
2019-02-05T03:33:03.728Z,20.12
2019-02-05T03:35:52.032Z,29.40
2019-02-05T03:38:40.514Z,25.52
2019-02-05T03:41:28.677Z,20.02
2019-02-05T03:44:16.715Z,20.75
2019-02-05T03:47:04.958Z,25.72
2019-02-05T03:49:54.387Z,25.00
2019-02-05T03:52:51.563Z,26.65
2019-02-05T03:55:56.027Z,24.47
2019-02-05T03:59:12.987Z,26.37
2019-02-05T04:02:43.535Z,23.42
2019-02-05T04:06:04.477Z,22.87
2019-02-05T04:09:25.298Z,28.02
2019-02-05T04:12:36.952Z,19.73
2019-02-05T04:15:57.926Z,22.90
2019-02-05T04:18:59.239Z,21.25
2019-02-05T04:22:10.736Z,23.20
2019-02-05T04:25:24.111Z,22.07
2019-02-05T04:28:55.001Z,20.12
2019-02-05T04:32:03.844Z,30.02
2019-02-05T04:35:24.693Z,25.77
2019-02-05T04:38:51.286Z,22.93
2019-02-05T04:42:03.851Z,29.25
2019-02-05T04:45:04.932Z,25.72
2019-02-05T04:48:38.913Z,31.85
2019-02-05T04:55:25.785Z,22.75
2019-02-05T04:58:50.838Z,21.02
2019-02-05T05:01:59.746Z,23.25
2019-02-05T05:08:40.924Z,33.35
2019-02-05T05:11:29.209Z,27.22
2019-02-05T05:14:17.487Z,24.27
2019-02-05T05:17:05.635Z,31.00
2019-02-05T05:19:54.388Z,23.65
2019-02-05T05:22:42.917Z,26.68
2019-02-05T05:25:31.563Z,24.85
2019-02-05T05:28:20.351Z,26.68
2019-02-05T05:31:08.678Z,31.73
2019-02-05T05:33:57.307Z,25.55
2019-02-05T05:36:50.313Z,26.80
2019-02-05T05:39:38.247Z,25.65
2019-02-05T05:42:26.681Z,22.10
2019-02-05T05:45:15.999Z,24.02
2019-02-05T05:48:04.274Z,27.50
2019-02-05T05:50:53.072Z,27.35
2019-02-05T05:53:40.983Z,23.77
2019-02-05T05:56:29.130Z,23.80
2019-02-05T05:59:17.310Z,26.82
2019-02-05T06:02:05.846Z,23.60
2019-02-05T06:04:53.646Z,19.45
2019-02-05T06:07:41.728Z,26.07
2019-02-05T06:10:36.911Z,32.20
2019-02-05T06:13:24.946Z,27.90
2019-02-05T06:16:14.100Z,28.92
2019-02-05T06:19:02.195Z,31.52
2019-02-05T06:21:50.841Z,30.92
2019-02-05T06:24:39.752Z,32.20
2019-02-05T06:27:28.015Z,27.17
2019-02-05T06:30:16.992Z,31.15
2019-02-05T06:33:04.979Z,25.48
2019-02-05T06:35:54.166Z,29.30
2019-02-05T06:38:44.574Z,27.95
2019-02-05T06:41:32.606Z,24.40
2019-02-05T06:44:21.227Z,32.95
2019-02-05T06:47:09.385Z,26.33
2019-02-05T06:50:00.595Z,31.48
2019-02-05T06:52:50.221Z,30.70
2019-02-05T06:55:37.866Z,30.10
2019-02-05T06:58:28.077Z,31.82
2019-02-05T07:01:17.836Z,27.45
2019-02-05T07:04:08.020Z,30.57
2019-02-05T07:06:56.110Z,32.88
2019-02-05T07:09:44.138Z,32.80
2019-02-05T07:12:32.276Z,23.35
2019-02-05T07:15:20.735Z,29.27
2019-02-05T07:18:08.878Z,26.30
2019-02-05T07:23:51.818Z,26.60
2019-02-05T07:26:40.126Z,34.58
2019-02-05T07:29:28.578Z,35.45
2019-02-05T07:35:05.236Z,26.97
2019-02-05T07:37:53.416Z,29.10
2019-02-05T07:40:42.071Z,28.20
2019-02-05T07:43:30.750Z,29.75
2019-02-05T07:46:19.596Z,31.97
2019-02-05T07:49:07.626Z,22.50
2019-02-05T07:51:59.748Z,22.50
2019-02-05T07:54:47.667Z,32.00
2019-02-05T07:57:36.535Z,37.15
2019-02-05T08:00:27.383Z,32.67
2019-02-05T08:03:15.946Z,31.60
2019-02-05T08:06:04.987Z,29.77
2019-02-05T08:08:53.586Z,29.87
2019-02-05T08:11:41.717Z,24.47
2019-02-05T08:14:30.154Z,28.75
2019-02-05T08:17:18.877Z,23.07
2019-02-05T08:20:07.715Z,28.23
2019-02-05T08:22:56.630Z,21.45
2019-02-05T08:25:44.853Z,28.10
2019-02-05T08:28:40.679Z,27.00
2019-02-05T08:31:23.357Z,29.48
2019-02-05T08:34:11.634Z,30.45
2019-02-05T08:37:00.019Z,20.92
2019-02-05T08:39:47.643Z,23.75
2019-02-05T08:42:36.154Z,23.07
2019-02-05T08:45:26.474Z,25.65
2019-02-05T08:48:15.026Z,20.30
2019-02-05T08:51:03.311Z,23.10
2019-02-05T08:53:50.470Z,23.25
2019-02-05T08:56:39.710Z,21.75
2019-02-05T08:59:27.474Z,24.90
2019-02-05T09:02:15.969Z,21.37
2019-02-05T09:05:08.185Z,28.40
2019-02-05T09:07:56.423Z,26.68
2019-02-05T09:10:45.200Z,25.75
2019-02-05T09:13:34.434Z,26.60
2019-02-05T09:16:28.297Z,28.90
2019-02-05T09:19:18.008Z,26.45
2019-02-05T09:22:07.069Z,27.02
2019-02-05T09:24:55.522Z,24.15
2019-02-05T09:27:44.427Z,31.85
2019-02-05T09:30:33.998Z,23.70
2019-02-05T09:33:23.013Z,27.67
2019-02-05T09:36:11.291Z,23.47
2019-02-05T09:39:00.242Z,21.30
2019-02-05T09:41:48.259Z,25.12
2019-02-05T09:44:36.558Z,23.38
2019-02-05T09:47:25.283Z,24.70
2019-02-05T09:50:19.428Z,29.27
2019-02-05T09:53:07.840Z,25.88
2019-02-05T09:55:56.034Z,22.45
2019-02-05T09:58:46.239Z,26.85
2019-02-05T10:01:35.775Z,27.35
2019-02-05T10:04:24.659Z,25.52
2019-02-05T10:07:12.898Z,22.02
2019-02-05T10:10:00.657Z,24.73
2019-02-05T10:12:49.516Z,24.50
2019-02-05T10:15:38.577Z,22.62
2019-02-05T10:18:27.281Z,23.15
2019-02-05T10:21:15.619Z,24.00
2019-02-05T10:24:04.854Z,32.23
2019-02-05T10:26:52.828Z,34.53
2019-02-05T10:29:41.199Z,22.00
2019-02-05T10:32:34.109Z,21.13
2019-02-05T10:35:22.699Z,25.20
2019-02-05T10:38:11.080Z,29.97
2019-02-05T10:40:59.541Z,28.90
2019-02-05T10:43:48.177Z,22.67
2019-02-05T10:46:36.754Z,26.67
2019-02-05T10:49:24.866Z,23.90
2019-02-05T10:52:13.623Z,22.80
2019-02-05T10:55:02.491Z,21.50
2019-02-05T10:57:51.226Z,22.73
2019-02-05T11:00:41.500Z,23.50
2019-02-05T11:03:29.842Z,20.40
2019-02-05T11:06:20.171Z,24.10
2019-02-05T11:09:10.418Z,18.13
2019-02-05T11:11:58.597Z,22.87
2019-02-05T11:14:46.638Z,17.70
2019-02-05T11:17:34.973Z,22.57
2019-02-05T11:20:24.426Z,21.30
2019-02-05T11:23:19.782Z,21.60
2019-02-05T11:26:07.946Z,23.23
2019-02-05T11:28:56.298Z,25.17
2019-02-05T11:31:44.136Z,18.60
2019-02-05T11:34:32.835Z,21.50
2019-02-05T11:37:21.384Z,29.70
2019-02-05T11:40:12.711Z,20.07
2019-02-05T11:43:01.342Z,25.57
2019-02-05T11:45:50.222Z,22.90
2019-02-05T11:48:38.650Z,26.63
2019-02-05T11:51:26.676Z,26.23
2019-02-05T11:54:15.556Z,20.07
2019-02-05T11:57:03.881Z,23.07
2019-02-05T11:59:51.826Z,24.60
2019-02-05T12:02:40.101Z,33.50
2019-02-05T12:05:28.761Z,27.93
2019-02-05T12:08:18.723Z,27.57
2019-02-05T12:11:07.493Z,18.23
2019-02-05T12:13:56.973Z,21.97
2019-02-05T12:17:13.131Z,24.00
2019-02-05T12:20:02.497Z,21.73
2019-02-05T12:23:08.195Z,25.27
2019-02-05T12:25:56.223Z,24.73
2019-02-05T12:28:44.832Z,21.63
2019-02-05T12:31:34.172Z,20.30
2019-02-05T12:34:22.654Z,17.10
2019-02-05T12:37:10.957Z,23.70
2019-02-05T12:39:58.921Z,19.77
2019-02-05T12:42:47.734Z,19.17
2019-02-05T12:45:36.069Z,30.97
2019-02-05T12:48:25.995Z,19.30
2019-02-05T12:51:15.086Z,20.97
2019-02-05T12:54:04.534Z,21.27
2019-02-05T12:56:54.054Z,22.57
2019-02-05T12:59:44.681Z,17.63
2019-02-05T13:02:33.323Z,21.03
2019-02-05T13:05:22.225Z,22.47
2019-02-05T13:08:10.411Z,21.60
2019-02-05T13:10:58.762Z,16.27
2019-02-05T13:13:48.029Z,23.63
2019-02-05T13:16:36.175Z,21.23
2019-02-05T13:19:25.691Z,21.00
2019-02-05T13:22:14.918Z,18.33
2019-02-05T13:25:03.081Z,18.67
2019-02-05T13:27:52.726Z,18.83
2019-02-05T13:30:41.598Z,22.30
2019-02-05T13:33:30.131Z,24.37
2019-02-05T13:36:22.745Z,19.80
2019-02-05T13:39:13.120Z,25.17
2019-02-05T13:42:02.440Z,22.17
2019-02-05T13:44:50.694Z,20.37
2019-02-05T13:47:43.554Z,21.50
2019-02-05T13:50:40.842Z,23.10
2019-02-05T13:53:28.042Z,23.90
2019-02-05T13:56:16.883Z,21.93
2019-02-05T13:59:06.026Z,25.57
2019-02-05T14:01:55.017Z,23.27
2019-02-05T14:04:44.310Z,21.57
2019-02-05T14:07:33.611Z,22.93
2019-02-05T14:10:25.627Z,20.93
2019-02-05T14:13:15.366Z,27.17
2019-02-05T14:16:06.345Z,23.83
2019-02-05T14:18:57.262Z,20.50
2019-02-05T14:21:46.007Z,17.50
2019-02-05T14:24:35.673Z,23.10
2019-02-05T14:27:24.447Z,22.17
2019-02-05T14:30:17.414Z,26.50
2019-02-05T14:33:06.674Z,25.27
2019-02-05T14:35:55.306Z,23.77
2019-02-05T14:38:43.894Z,22.07
2019-02-05T14:41:32.685Z,21.73
2019-02-05T14:44:22.608Z,26.97
2019-02-05T14:47:12.050Z,20.53
2019-02-05T14:50:01.514Z,23.00
2019-02-05T14:52:50.314Z,18.70
2019-02-05T14:55:39.131Z,24.33
2019-02-05T14:58:27.998Z,24.83
2019-02-05T15:01:17.310Z,22.63
2019-02-05T15:04:07.214Z,24.20
2019-02-05T15:06:56.257Z,24.87
2019-02-05T15:09:45.115Z,24.33
2019-02-05T15:12:32.988Z,24.80
2019-02-05T15:15:20.970Z,17.93
2019-02-05T15:18:13.747Z,21.47
2019-02-05T15:21:07.248Z,24.53
2019-02-05T15:23:57.649Z,25.70
2019-02-05T15:26:45.611Z,21.23
2019-02-05T15:29:34.347Z,30.10
2019-02-05T15:32:47.257Z,22.50
2019-02-05T15:35:36.499Z,21.60
2019-02-05T15:38:25.326Z,29.97
2019-02-05T15:41:14.162Z,28.93
2019-02-05T15:44:02.715Z,24.70
2019-02-05T15:46:52.561Z,25.97
2019-02-05T15:49:40.993Z,22.47
2019-02-05T15:52:31.035Z,24.30
2019-02-05T15:55:21.125Z,25.20
2019-02-05T15:58:10.109Z,28.20
2019-02-05T16:00:58.825Z,30.00
2019-02-05T16:03:47.709Z,28.53
2019-02-05T16:06:36.529Z,21.80
2019-02-05T16:09:26.068Z,26.33
2019-02-05T16:12:15.175Z,27.20
2019-02-05T16:15:05.155Z,23.57
2019-02-05T16:17:53.870Z,24.97
2019-02-05T16:20:43.267Z,27.33
2019-02-05T16:23:31.874Z,27.80
2019-02-05T16:26:21.203Z,34.77
2019-02-05T16:29:10.212Z,28.00
2019-02-05T16:31:59.639Z,26.90
2019-02-05T16:34:48.423Z,23.90
2019-02-05T16:37:36.942Z,32.77
2019-02-05T16:40:27.035Z,23.10
2019-02-05T16:43:16.371Z,23.57
2019-02-05T16:46:05.386Z,28.93
2019-02-05T16:48:54.166Z,24.13
2019-02-05T16:54:45.586Z,31.93
2019-02-05T16:57:34.223Z,21.97
2019-02-05T17:00:33.465Z,24.10
2019-02-05T17:03:22.658Z,27.27
2019-02-05T17:06:10.554Z,27.50
2019-02-05T17:08:59.003Z,29.20
2019-02-05T17:11:48.177Z,36.50
2019-02-05T17:14:36.294Z,40.73
2019-02-05T17:17:26.322Z,25.40
2019-02-05T17:20:18.395Z,27.80
2019-02-05T17:23:08.098Z,27.13
2019-02-05T17:25:57.301Z,27.85
2019-02-05T17:28:47.125Z,28.47
2019-02-05T17:31:37.011Z,26.30
2019-02-05T17:34:26.339Z,26.87
2019-02-05T17:40:12.273Z,25.80
2019-02-05T17:43:01.672Z,36.83
2019-02-05T17:45:51.351Z,26.73
2019-02-05T17:48:40.532Z,31.02
2019-02-05T17:51:30.785Z,29.17
2019-02-05T17:54:19.799Z,31.03
2019-02-05T17:57:10.054Z,33.80
2019-02-05T17:59:59.645Z,27.40
2019-02-05T18:02:51.560Z,28.67
2019-02-05T18:05:41.460Z,31.60
2019-02-05T18:08:30.141Z,28.40
2019-02-05T18:11:19.891Z,33.15
2019-02-05T18:14:08.459Z,27.95
2019-02-05T18:16:57.219Z,30.05
2019-02-05T18:19:47.238Z,32.40
2019-02-05T18:22:39.316Z,33.88
2019-02-05T18:25:29.049Z,29.92
2019-02-05T18:28:17.968Z,33.07
2019-02-05T18:31:06.573Z,26.30
2019-02-05T18:33:55.970Z,24.00
2019-02-05T18:36:45.166Z,30.33
2019-02-05T18:39:32.587Z,43.13
2019-02-05T18:42:20.802Z,29.15
2019-02-05T18:45:10.847Z,32.13
2019-02-05T18:48:01.005Z,33.90
2019-02-05T18:50:50.520Z,37.83
2019-02-05T18:53:39.229Z,32.28
2019-02-05T18:56:28.303Z,32.45
2019-02-05T18:59:18.321Z,42.83
2019-02-05T19:02:07.287Z,33.10
2019-02-05T19:04:57.647Z,34.48
2019-02-05T19:07:46.425Z,26.12
2019-02-05T19:10:35.541Z,31.52
2019-02-05T19:13:24.634Z,35.05
2019-02-05T19:16:12.641Z,33.28
2019-02-05T19:19:14.271Z,32.58
2019-02-05T19:21:55.035Z,33.38
2019-02-05T19:24:51.129Z,34.92
2019-02-05T19:27:40.359Z,33.73
2019-02-05T19:30:31.026Z,33.55
2019-02-05T19:33:27.133Z,35.25
2019-02-05T19:36:11.816Z,26.55
2019-02-05T19:39:02.329Z,29.85
2019-02-05T19:41:51.893Z,33.18
2019-02-05T19:44:43.416Z,34.53
2019-02-05T19:47:34.699Z,32.40
2019-02-05T19:50:24.592Z,39.70
2019-02-05T19:53:15.005Z,31.95
2019-02-05T19:56:06.039Z,32.88
2019-02-05T19:58:55.485Z,35.98
2019-02-05T20:01:44.053Z,31.15
2019-02-05T20:04:33.803Z,31.10
2019-02-05T20:07:23.581Z,32.40
2019-02-05T20:10:13.391Z,30.35
2019-02-05T20:13:02.583Z,30.82
2019-02-05T20:15:51.329Z,31.82
2019-02-05T20:18:39.034Z,36.42
2019-02-05T20:21:27.677Z,34.97
2019-02-05T20:24:18.650Z,31.68
2019-02-05T20:27:07.166Z,43.48
2019-02-05T20:29:56.429Z,33.75
2019-02-05T20:32:45.142Z,37.85
2019-02-05T20:35:36.413Z,38.50
2019-02-05T20:38:26.001Z,26.82
2019-02-05T20:41:15.402Z,31.60
2019-02-05T20:44:05.669Z,33.45
2019-02-05T20:46:56.233Z,34.53
2019-02-05T20:49:46.564Z,35.05
2019-02-05T20:52:35.835Z,30.15
2019-02-05T20:55:25.721Z,33.92
2019-02-05T20:58:14.005Z,37.20
2019-02-05T21:01:04.922Z,32.40
2019-02-05T21:04:01.347Z,30.62
2019-02-05T21:06:45.862Z,41.18
2019-02-05T21:09:42.163Z,33.00
2019-02-05T21:12:30.144Z,42.33
2019-02-05T21:15:19.339Z,29.48
2019-02-05T21:18:08.626Z,37.95
2019-02-05T21:20:58.168Z,36.93
2019-02-05T21:23:47.594Z,29.30
2019-02-05T21:26:36.668Z,33.25
2019-02-05T21:29:30.662Z,35.63
2019-02-05T21:32:19.316Z,42.60
2019-02-05T21:35:10.332Z,29.55
2019-02-05T21:37:59.062Z,30.92
2019-02-05T21:40:47.426Z,31.48
2019-02-05T21:43:35.682Z,32.88
2019-02-05T21:46:26.669Z,31.52
2019-02-05T21:49:15.954Z,36.42
2019-02-05T21:52:06.206Z,34.67
2019-02-05T21:54:55.818Z,39.23
2019-02-05T21:57:44.134Z,39.42
2019-02-05T22:00:33.539Z,32.40
2019-02-05T22:03:22.196Z,31.10
2019-02-05T22:06:12.956Z,38.67
2019-02-05T22:09:02.301Z,39.55
2019-02-05T22:11:51.682Z,37.40
2019-02-05T22:14:40.178Z,36.10
2019-02-05T22:17:29.602Z,38.78
2019-02-05T22:20:19.834Z,37.70
2019-02-05T22:23:08.476Z,38.92
2019-02-05T22:25:57.051Z,36.83
2019-02-05T22:28:45.170Z,40.70
2019-02-05T22:31:33.028Z,36.75
2019-02-05T22:34:21.680Z,46.20
2019-02-05T22:37:10.527Z,31.20
2019-02-05T22:39:58.999Z,33.98
2019-02-05T22:42:47.171Z,43.25
2019-02-05T22:45:42.007Z,36.65
2019-02-05T22:48:30.735Z,33.45
2019-02-05T22:51:19.803Z,30.57
2019-02-05T22:54:08.026Z,30.70
2019-02-05T22:56:56.495Z,29.80
2019-02-05T22:59:45.142Z,35.85
2019-02-05T23:02:32.829Z,38.55
2019-02-05T23:05:39.305Z,31.93
2019-02-05T23:08:27.366Z,31.07
2019-02-05T23:11:44.261Z,40.90
2019-02-05T23:14:32.825Z,32.17
2019-02-05T23:17:22.190Z,31.20
2019-02-05T23:20:13.631Z,35.00
2019-02-05T23:23:02.558Z,31.50
2019-02-05T23:25:51.495Z,37.98
2019-02-05T23:28:39.467Z,39.35
2019-02-05T23:31:28.112Z,35.73
2019-02-05T23:34:16.822Z,31.45
2019-02-05T23:37:05.465Z,27.50
2019-02-05T23:39:53.538Z,31.82
2019-02-05T23:42:42.253Z,31.07
2019-02-05T23:48:31.454Z,31.95
2019-02-05T23:51:20.003Z,29.25
2019-02-05T23:54:08.490Z,39.05
2019-02-05T23:56:56.887Z,42.03
2019-02-05T23:59:44.795Z,39.03
